Time;durP1;ratioP1;P1;durP2;ratioP2;P2;SDS_P1;SDS_P2;PMS_P1;PMS_P2;Temp;Humidity;BMP_temperature;BMP_pressure;BME280_temperature;BME280_humidity;BME280_pressure;Samples;Min_cycle;Max_cycle;Signal;HPM_P1;HPM_P2
2021/12/07 00:00:38;;;;;;;;;6.00;5.50;;;;;21.12;50.25;100770.35;107553;1301;19738;-74
2021/12/07 00:03:04;;;;;;;;;6.00;6.00;;;;;21.13;50.29;100771.20;107562;1297;22460;-73
2021/12/07 00:05:30;;;;;;;;;5.00;5.00;;;;;21.13;50.50;100763.98;107543;1298;23307;-73
2021/12/07 00:07:56;;;;;;;;;5.50;5.00;;;;;21.13;50.25;100767.48;107584;1298;21030;-73
2021/12/07 00:10:22;;;;;;;;;6.00;6.00;;;;;21.14;50.32;100758.38;107546;1298;18819;-73
2021/12/07 00:12:48;;;;;;;;;8.00;6.00;;;;;21.15;50.25;100757.31;107529;1297;18921;-73
2021/12/07 00:15:17;;;;;;;;;8.00;8.00;;;;;21.15;50.15;100757.69;107485;1297;19425;-74
2021/12/07 00:17:43;;;;;;;;;7.00;7.00;;;;;21.16;50.22;100765.17;107555;1300;18747;-73
2021/12/07 00:20:09;;;;;;;;;8.00;8.00;;;;;21.16;50.05;100766.05;107472;1297;19072;-73
2021/12/07 00:22:35;;;;;;;;;5.00;5.00;;;;;21.17;50.08;100764.14;107613;1298;22019;-74
2021/12/07 00:25:01;;;;;;;;;9.50;9.00;;;;;21.17;50.20;100767.59;107633;1301;18994;-73
2021/12/07 00:27:27;;;;;;;;;6.00;5.00;;;;;21.18;50.03;100772.23;107658;1297;19246;-74
2021/12/07 00:29:52;;;;;;;;;6.00;5.00;;;;;21.18;50.06;100773.52;107580;1298;19518;-73
2021/12/07 00:32:26;;;;;;;;;6.00;6.00;;;;;21.18;50.04;100777.34;107511;1300;18484;-74
2021/12/07 00:35:21;;;;;;;;;5.67;5.00;;;;;21.17;49.94;100776.85;107572;1298;19139;-73
2021/12/07 00:37:47;;;;;;;;;5.33;5.33;;;;;21.17;49.91;100776.83;107608;1298;21662;-73
2021/12/07 00:40:13;;;;;;;;;6.00;5.00;;;;;21.17;50.02;100774.17;107575;1298;20385;-73
2021/12/07 00:42:39;;;;;;;;;6.00;5.50;;;;;21.18;49.96;100783.06;107620;1298;18837;-73
2021/12/07 00:45:05;;;;;;;;;7.33;6.00;;;;;21.17;49.79;100781.94;107602;1298;19856;-73
2021/12/07 00:47:31;;;;;;;;;5.00;5.00;;;;;21.18;49.90;100792.23;107560;1299;18390;-72
2021/12/07 00:49:57;;;;;;;;;5.00;4.00;;;;;-98.16;9.18;20157.50;105091;1298;1002559;-73
2021/12/07 00:52:23;;;;;;;;;6.00;6.00;;;;;-128.00;-1.00;-1.00;104067;1289;1002923;-73
2021/12/07 00:54:49;;;;;;;;;5.00;5.00;;;;;-128.00;-1.00;-1.00;104088;1297;1002832;-73
2021/12/07 00:57:15;;;;;;;;;5.00;5.00;;;;;-128.00;-1.00;-1.00;104127;1297;1002713;-73
2021/12/07 00:59:41;;;;;;;;;5.00;5.00;;;;;-128.00;-1.00;-1.00;104081;1297;1002534;-73
2021/12/07 01:02:07;;;;;;;;;4.75;4.75;;;;;-128.00;-1.00;-1.00;104120;1297;1002363;-73
2021/12/07 01:04:32;;;;;;;;;5.00;5.00;;;;;-128.00;-1.00;-1.00;104166;1301;1005226;-73
2021/12/07 01:07:03;;;;;;;;;8.00;6.00;;;;;-128.00;-1.00;-1.00;104137;1300;1002959;-74
2021/12/07 01:09:35;;;;;;;;;5.00;4.25;;;;;-128.00;-1.00;-1.00;104275;1295;1006093;-72
2021/12/07 01:25:42;;;;;;;;;4.00;4.00;;;;;-128.00;-1.00;-1.00;103514;1301;1006427;-73
2021/12/07 01:28:16;;;;;;;;;6.00;5.25;;;;;-128.00;-1.00;-1.00;103538;1303;1002770;-73
2021/12/07 01:30:50;;;;;;;;;5.00;5.00;;;;;-128.00;-1.00;-1.00;103424;1295;1006731;-73
2021/12/07 01:33:41;;;;;;;;;6.00;5.00;;;;;-128.00;-1.00;-1.00;103341;1297;1005823;-73
2021/12/07 01:36:22;;;;;;;;;5.25;4.25;;;;;-128.00;-1.00;-1.00;103417;1298;1006564;-73
2021/12/07 01:42:46;;;;;;;;;5.00;5.00;;;;;-128.00;-1.00;-1.00;103263;1297;1006835;-73
2021/12/07 01:53:06;;;;;;;;;5.00;4.00;;;;;-128.00;-1.00;-1.00;103490;1297;1007367;-73
2021/12/07 02:01:01;;;;;;;;;5.75;5.00;;;;;-128.00;-1.00;-1.00;104090;1297;1006979;-73
2021/12/07 02:03:27;;;;;;;;;5.25;4.00;;;;;-128.00;-1.00;-1.00;104122;1297;1003975;-73
2021/12/07 02:05:53;;;;;;;;;4.75;4.50;;;;;-128.00;-1.00;-1.00;104063;1292;1002568;-73
2021/12/07 02:08:19;;;;;;;;;5.75;5.00;;;;;-128.00;-1.00;-1.00;104108;1298;1002601;-73
2021/12/07 02:10:45;;;;;;;;;4.50;4.50;;;;;-128.00;-1.00;-1.00;104049;1298;1002127;-74
2021/12/07 02:13:22;;;;;;;;;5.50;4.75;;;;;-128.00;-1.00;-1.00;104070;1294;1002556;-73
2021/12/07 02:15:48;;;;;;;;;5.00;4.00;;;;;-128.00;-1.00;-1.00;104130;1297;1005925;-73
2021/12/07 02:18:13;;;;;;;;;5.00;5.00;;;;;-128.00;-1.00;-1.00;104144;1297;1002896;-73
2021/12/07 02:20:39;;;;;;;;;5.00;4.67;;;;;-128.00;-1.00;-1.00;104092;1297;1002492;-73
2021/12/07 02:23:05;;;;;;;;;5.00;4.00;;;;;-128.00;-1.00;-1.00;104122;1301;1002153;-73
2021/12/07 02:25:33;;;;;;;;;4.25;4.25;;;;;-128.00;-1.00;-1.00;104111;1301;1002688;-73
2021/12/07 02:27:59;;;;;;;;;4.00;4.00;;;;;-128.00;-1.00;-1.00;104110;1295;1002600;-73
2021/12/07 02:30:25;;;;;;;;;4.50;4.25;;;;;-128.00;-1.00;-1.00;104109;1292;1002506;-73
2021/12/07 02:32:52;;;;;;;;;4.00;4.00;;;;;-128.00;-1.00;-1.00;104060;1298;1002510;-73
2021/12/07 02:35:24;;;;;;;;;4.67;4.67;;;;;-128.00;-1.00;-1.00;104079;1290;1002309;-74
2021/12/07 02:37:50;;;;;;;;;5.00;5.00;;;;;-128.00;-1.00;-1.00;104158;1295;1006902;-73
2021/12/07 02:40:16;;;;;;;;;5.75;5.50;;;;;-128.00;-1.00;-1.00;104138;1301;1002607;-73
2021/12/07 02:42:41;;;;;;;;;4.00;4.00;;;;;-128.00;-1.00;-1.00;104110;1297;1002883;-73
2021/12/07 02:45:07;;;;;;;;;6.25;5.00;;;;;-128.00;-1.00;-1.00;104114;1297;1002748;-73
2021/12/07 02:47:33;;;;;;;;;5.00;4.00;;;;;-128.00;-1.00;-1.00;104069;1297;1004266;-72
2021/12/07 02:49:59;;;;;;;;;6.00;6.00;;;;;-128.00;-1.00;-1.00;104171;1301;1002499;-73
2021/12/07 02:52:25;;;;;;;;;5.00;5.00;;;;;-128.00;-1.00;-1.00;104109;1298;1002601;-73
2021/12/07 02:54:51;;;;;;;;;5.00;4.75;;;;;-128.00;-1.00;-1.00;104099;1298;1002777;-73
2021/12/07 02:57:17;;;;;;;;;7.50;6.00;;;;;-128.00;-1.00;-1.00;104079;1297;1002268;-73
2021/12/07 02:59:45;;;;;;;;;4.00;4.00;;;;;-128.00;-1.00;-1.00;104280;1298;1002606;-73
2021/12/07 03:02:12;;;;;;;;;3.75;3.75;;;;;-128.00;-1.00;-1.00;104081;1288;1002693;-73
2021/12/07 03:04:46;;;;;;;;;4.00;4.00;;;;;-128.00;-1.00;-1.00;104147;1292;1002977;-73
2021/12/07 03:07:19;;;;;;;;;4.50;4.50;;;;;-128.00;-1.00;-1.00;104119;1296;1007982;-73
2021/12/07 03:25:49;;;;;;;;;4.75;4.75;;;;;-128.00;-1.00;-1.00;104072;1292;1007070;-73
2021/12/07 03:26:33;;;;;;;;;5.00;5.00;;;;;-128.00;-1.00;-1.00;104055;1291;1006925;-73
2021/12/07 03:29:00;;;;;;;;;6.00;5.00;;;;;-128.00;-1.00;-1.00;104157;1298;1002626;-76
2021/12/07 03:31:26;;;;;;;;;5.50;4.75;;;;;-128.00;-1.00;-1.00;104091;1291;1002699;-74
2021/12/07 03:33:53;;;;;;;;;4.00;4.00;;;;;-128.00;-1.00;-1.00;104150;1298;1002615;-73
2021/12/07 03:36:19;;;;;;;;;5.00;5.00;;;;;-128.00;-1.00;-1.00;104214;1288;1003300;-73
2021/12/07 03:38:45;;;;;;;;;3.75;3.75;;;;;-128.00;-1.00;-1.00;104249;1301;1002429;-73
2021/12/07 03:41:11;;;;;;;;;5.75;4.75;;;;;-128.00;-1.00;-1.00;104080;1298;1002242;-73
2021/12/07 03:43:37;;;;;;;;;4.25;4.25;;;;;-128.00;-1.00;-1.00;104187;1301;1002914;-73
2021/12/07 03:46:03;;;;;;;;;4.75;4.75;;;;;-128.00;-1.00;-1.00;104119;1298;1002274;-74
2021/12/07 03:48:29;;;;;;;;;2.75;2.75;;;;;-128.00;-1.00;-1.00;104144;1297;1002726;-74
2021/12/07 03:50:56;;;;;;;;;4.25;4.00;;;;;-128.00;-1.00;-1.00;104121;1292;1004103;-74
2021/12/07 03:53:21;;;;;;;;;5.00;5.00;;;;;-128.00;-1.00;-1.00;104093;1301;1004158;-73
2021/12/07 03:55:47;;;;;;;;;5.00;5.00;;;;;-128.00;-1.00;-1.00;104147;1298;1002838;-72
2021/12/07 03:58:13;;;;;;;;;4.50;4.50;;;;;-128.00;-1.00;-1.00;104097;1301;1002617;-74
2021/12/07 04:00:39;;;;;;;;;5.00;4.75;;;;;-128.00;-1.00;-1.00;104088;1297;1003069;-74
2021/12/07 04:03:08;;;;;;;;;6.00;4.00;;;;;-128.00;-1.00;-1.00;104096;1297;1002324;-74
2021/12/07 04:05:33;;;;;;;;;4.00;4.00;;;;;-128.00;-1.00;-1.00;103993;1291;1007106;-72
2021/12/07 04:07:59;;;;;;;;;4.25;4.00;;;;;-128.00;-1.00;-1.00;104123;1297;1003072;-72
2021/12/07 04:10:26;;;;;;;;;4.25;4.00;;;;;-128.00;-1.00;-1.00;104130;1297;1002731;-73
2021/12/07 04:12:52;;;;;;;;;4.00;4.00;;;;;-128.00;-1.00;-1.00;104100;1292;1002625;-73
2021/12/07 04:15:18;;;;;;;;;4.50;4.50;;;;;-128.00;-1.00;-1.00;104081;1299;1002895;-73
2021/12/07 04:17:44;;;;;;;;;5.75;4.00;;;;;-128.00;-1.00;-1.00;104233;1298;1002667;-72
2021/12/07 04:20:09;;;;;;;;;3.75;3.75;;;;;-128.00;-1.00;-1.00;104095;1289;1002751;-74
2021/12/07 04:22:35;;;;;;;;;5.00;5.00;;;;;-128.00;-1.00;-1.00;104131;1300;1002751;-74
2021/12/07 04:25:01;;;;;;;;;6.50;4.75;;;;;-128.00;-1.00;-1.00;104117;1298;1002735;-74
2021/12/07 04:27:29;;;;;;;;;4.25;4.25;;;;;-128.00;-1.00;-1.00;104090;1301;1002460;-73
2021/12/07 04:29:55;;;;;;;;;4.50;4.50;;;;;-128.00;-1.00;-1.00;104130;1295;1002940;-74
2021/12/07 04:32:21;;;;;;;;;4.75;4.50;;;;;-128.00;-1.00;-1.00;104102;1297;1002738;-74
2021/12/07 04:34:47;;;;;;;;;5.75;5.00;;;;;-128.00;-1.00;-1.00;104140;1297;1002896;-74
2021/12/07 04:37:13;;;;;;;;;5.00;4.75;;;;;-128.00;-1.00;-1.00;104094;1298;1002761;-74
2021/12/07 04:39:39;;;;;;;;;4.00;4.00;;;;;-128.00;-1.00;-1.00;104109;1298;1003375;-74
2021/12/07 04:42:05;;;;;;;;;4.00;4.00;;;;;-128.00;-1.00;-1.00;104140;1291;1002721;-74
2021/12/07 04:44:37;;;;;;;;;4.75;4.75;;;;;-128.00;-1.00;-1.00;104079;1298;1003935;-74
2021/12/07 04:47:10;;;;;;;;;5.00;4.00;;;;;-128.00;-1.00;-1.00;104369;1295;1007267;-74
2021/12/07 04:57:54;;;;;;;;;5.50;5.00;;;;;-128.00;-1.00;-1.00;103544;1295;1006573;-75
2021/12/07 05:00:20;;;;;;;;;5.00;5.00;;;;;-128.00;-1.00;-1.00;103464;1305;1002404;-74
2021/12/07 05:02:51;;;;;;;;;4.00;4.00;;;;;-128.00;-1.00;-1.00;103434;1304;1002702;-74
2021/12/07 05:05:18;;;;;;;;;5.75;5.00;;;;;-128.00;-1.00;-1.00;103436;1303;1006653;-73
2021/12/07 05:07:49;;;;;;;;;4.00;4.00;;;;;-128.00;-1.00;-1.00;103481;1303;1005063;-73
2021/12/07 05:10:23;;;;;;;;;4.00;4.00;;;;;-128.00;-1.00;-1.00;103447;1304;1007928;-74
2021/12/07 05:13:22;;;;;;;;;4.00;4.00;;;;;-128.00;-1.00;-1.00;103427;1301;1006207;-73
2021/12/07 05:16:11;;;;;;;;;5.00;4.67;;;;;-128.00;-1.00;-1.00;103364;1297;1006047;-74
2021/12/07 05:18:52;;;;;;;;;5.00;4.33;;;;;-128.00;-1.00;-1.00;103505;1304;1007571;-72
2021/12/07 05:24:06;;;;;;;;;4.75;4.75;;;;;-128.00;-1.00;-1.00;103502;1297;1006859;-75
2021/12/07 05:37:46;;;;;;;;;5.00;5.00;;;;;-128.00;-1.00;-1.00;104078;1291;1006227;-72
2021/12/07 05:40:12;;;;;;;;;6.00;6.00;;;;;-128.00;-1.00;-1.00;104072;1292;1007276;-72
2021/12/07 05:42:38;;;;;;;;;4.50;4.25;;;;;-128.00;-1.00;-1.00;104080;1292;1003479;-72
2021/12/07 05:45:04;;;;;;;;;4.50;4.50;;;;;-128.00;-1.00;-1.00;104086;1298;1002818;-72
2021/12/07 05:47:30;;;;;;;;;6.00;6.00;;;;;-128.00;-1.00;-1.00;104081;1289;1003090;-72
2021/12/07 05:49:56;;;;;;;;;5.25;5.00;;;;;-128.00;-1.00;-1.00;104100;1298;1002562;-72
2021/12/07 05:52:22;;;;;;;;;6.00;5.75;;;;;-128.00;-1.00;-1.00;104005;1297;1002613;-74
2021/12/07 05:54:48;;;;;;;;;9.00;6.00;;;;;-128.00;-1.00;-1.00;104009;1297;1002916;-73
2021/12/07 05:57:14;;;;;;;;;5.00;5.00;;;;;-128.00;-1.00;-1.00;104063;1298;1002651;-73
2021/12/07 05:59:40;;;;;;;;;8.50;7.00;;;;;-128.00;-1.00;-1.00;104042;1297;1003660;-73
2021/12/07 06:02:06;;;;;;;;;5.33;5.00;;;;;-128.00;-1.00;-1.00;104179;1289;1002563;-73
2021/12/07 06:04:32;;;;;;;;;9.00;7.75;;;;;-128.00;-1.00;-1.00;104393;1298;1003956;-73
2021/12/07 06:06:58;;;;;;;;;6.00;6.00;;;;;-128.00;-1.00;-1.00;104219;1297;1002690;-73
2021/12/07 06:09:24;;;;;;;;;7.25;6.50;;;;;-128.00;-1.00;-1.00;103982;1297;1002995;-73
2021/12/07 06:11:50;;;;;;;;;8.00;6.75;;;;;-128.00;-1.00;-1.00;104353;1298;1002115;-74
2021/12/07 06:14:18;;;;;;;;;6.00;6.00;;;;;-128.00;-1.00;-1.00;104414;1292;1002742;-72
2021/12/07 06:16:44;;;;;;;;;6.75;6.00;;;;;-128.00;-1.00;-1.00;104277;1294;1007008;-74
2021/12/07 06:19:10;;;;;;;;;6.00;5.25;;;;;-128.00;-1.00;-1.00;104146;1301;1002308;-72
2021/12/07 06:21:36;;;;;;;;;6.00;5.00;;;;;-128.00;-1.00;-1.00;104211;1292;1003728;-72
2021/12/07 06:24:02;;;;;;;;;5.75;5.00;;;;;-128.00;-1.00;-1.00;104160;1297;1002303;-72
2021/12/07 06:26:28;;;;;;;;;6.75;6.00;;;;;-128.00;-1.00;-1.00;104071;1296;1002919;-72
2021/12/07 06:28:54;;;;;;;;;6.00;6.00;;;;;-128.00;-1.00;-1.00;104053;1298;1002751;-73
2021/12/07 06:31:20;;;;;;;;;7.25;6.00;;;;;-128.00;-1.00;-1.00;104077;1297;1002192;-72
2021/12/07 06:33:46;;;;;;;;;6.50;6.00;;;;;-128.00;-1.00;-1.00;104304;1298;1002268;-73
2021/12/07 06:36:14;;;;;;;;;8.00;7.00;;;;;-128.00;-1.00;-1.00;103955;1292;1002778;-73
2021/12/07 06:38:40;;;;;;;;;7.75;6.50;;;;;-128.00;-1.00;-1.00;104054;1297;1002564;-72
2021/12/07 06:41:06;;;;;;;;;9.00;8.00;;;;;-128.00;-1.00;-1.00;103918;1292;1002918;-73
2021/12/07 06:43:32;;;;;;;;;7.67;7.33;;;;;-128.00;-1.00;-1.00;104168;1297;1002555;-71
2021/12/07 06:45:58;;;;;;;;;5.75;5.75;;;;;-128.00;-1.00;-1.00;104051;1297;1004714;-73
2021/12/07 06:48:24;;;;;;;;;8.50;6.00;;;;;-128.00;-1.00;-1.00;104186;1293;1002888;-72
2021/12/07 06:50:50;;;;;;;;;7.25;6.00;;;;;-128.00;-1.00;-1.00;104083;1301;1002505;-72
2021/12/07 06:53:17;;;;;;;;;8.00;6.50;;;;;-128.00;-1.00;-1.00;104052;1295;1004439;-72
2021/12/07 06:55:43;;;;;;;;;6.00;6.00;;;;;-128.00;-1.00;-1.00;104087;1292;1002385;-73
2021/12/07 06:58:09;;;;;;;;;8.25;8.00;;;;;-128.00;-1.00;-1.00;104205;1290;1002656;-74
2021/12/07 07:00:35;;;;;;;;;7.00;6.50;;;;;-128.00;-1.00;-1.00;104144;1292;1002325;-72
2021/12/07 07:03:01;;;;;;;;;9.75;9.00;;;;;-128.00;-1.00;-1.00;104046;1298;1002573;-73
2021/12/07 07:05:26;;;;;;;;;7.67;6.00;;;;;-128.00;-1.00;-1.00;104087;1301;1002602;-73
2021/12/07 07:07:52;;;;;;;;;9.67;9.00;;;;;-128.00;-1.00;-1.00;104354;1299;1002583;-73
2021/12/07 07:10:18;;;;;;;;;9.25;8.75;;;;;-128.00;-1.00;-1.00;104153;1297;1002434;-73
2021/12/07 07:12:44;;;;;;;;;9.00;9.00;;;;;-128.00;-1.00;-1.00;104114;1296;1002988;-73
2021/12/07 07:15:10;;;;;;;;;9.00;8.67;;;;;-128.00;-1.00;-1.00;104110;1298;1002854;-73
2021/12/07 07:17:36;;;;;;;;;10.33;9.00;;;;;-128.00;-1.00;-1.00;104036;1300;1003072;-72
2021/12/07 07:20:03;;;;;;;;;9.25;8.75;;;;;-128.00;-1.00;-1.00;104178;1298;1002616;-75
2021/12/07 07:22:29;;;;;;;;;10.00;9.00;;;;;-128.00;-1.00;-1.00;104217;1298;1003014;-75
2021/12/07 07:24:56;;;;;;;;;9.00;9.00;;;;;-128.00;-1.00;-1.00;104180;1297;1003525;-77
2021/12/07 07:27:22;;;;;;;;;9.00;9.00;;;;;-128.00;-1.00;-1.00;104109;1298;1004805;-72
2021/12/07 07:29:48;;;;;;;;;9.00;9.00;;;;;-128.00;-1.00;-1.00;103940;1298;1002265;-75
2021/12/07 07:32:14;;;;;;;;;10.25;8.75;;;;;-128.00;-1.00;-1.00;104092;1298;1002370;-79
2021/12/07 07:34:40;;;;;;;;;10.00;9.00;;;;;-128.00;-1.00;-1.00;104058;1298;1002866;-78
2021/12/07 07:37:05;;;;;;;;;10.00;9.00;;;;;-128.00;-1.00;-1.00;104075;1291;1002832;-76
2021/12/07 07:39:32;;;;;;;;;9.33;9.00;;;;;-128.00;-1.00;-1.00;104064;1297;1002935;-77
2021/12/07 07:41:58;;;;;;;;;12.00;12.00;;;;;-128.00;-1.00;-1.00;104037;1296;1002658;-78
2021/12/07 07:44:24;;;;;;;;;10.25;10.00;;;;;-128.00;-1.00;-1.00;104105;1297;1002675;-78
2021/12/07 07:46:50;;;;;;;;;10.75;10.00;;;;;-128.00;-1.00;-1.00;104161;1298;1002702;-73
2021/12/07 07:49:16;;;;;;;;;9.25;9.00;;;;;-128.00;-1.00;-1.00;104124;1297;1002956;-73
2021/12/07 07:51:42;;;;;;;;;13.50;12.00;;;;;-128.00;-1.00;-1.00;104373;1297;1002909;-74
2021/12/07 07:54:08;;;;;;;;;8.75;8.75;;;;;-128.00;-1.00;-1.00;104196;1298;1002616;-74
2021/12/07 07:56:34;;;;;;;;;11.00;9.75;;;;;-128.00;-1.00;-1.00;104141;1298;1002329;-74
2021/12/07 07:59:00;;;;;;;;;10.00;9.00;;;;;-128.00;-1.00;-1.00;104316;1298;1002599;-74
2021/12/07 08:01:29;;;;;;;;;13.00;11.00;;;;;-128.00;-1.00;-1.00;104081;1298;1002812;-74
2021/12/07 08:40:57;;;;;;;;;87.67;61.33;;;;;21.28;48.70;100912.19;106131;1317;18734;-73
2021/12/07 08:43:23;;;;;;;;;83.33;60.00;;;;;21.28;48.82;100913.86;108402;1290;18660;-73
2021/12/07 08:45:49;;;;;;;;;71.67;54.00;;;;;21.28;48.77;100910.84;108466;1290;18115;-73
2021/12/07 08:48:15;;;;;;;;;76.67;55.33;;;;;21.24;48.81;100914.02;108662;1286;18697;-73
2021/12/07 08:50:42;;;;;;;;;76.00;58.00;;;;;21.19;48.88;100905.80;108690;1286;19849;-73
2021/12/07 08:53:11;;;;;;;;;75.00;57.00;;;;;21.18;49.32;100917.95;108709;1286;20588;-74
2021/12/07 09:01:06;;;;;;;;;64.00;51.67;;;;;21.12;49.20;100921.14;108731;1286;18717;-74
2021/12/07 09:03:32;;;;;;;;;62.00;47.00;;;;;21.12;49.10;100924.13;109081;1283;18216;-73
2021/12/07 09:05:58;;;;;;;;;63.33;48.00;;;;;21.11;48.89;100925.70;109055;1283;20222;-74
2021/12/07 09:08:24;;;;;;;;;56.00;45.00;;;;;21.11;49.05;100926.41;109072;1282;18214;-72
2021/12/07 09:10:49;;;;;;;;;56.33;45.33;;;;;21.10;48.90;100926.89;109107;1281;18238;-73
2021/12/07 09:13:15;;;;;;;;;60.00;45.00;;;;;21.10;48.71;100933.43;109100;1283;19704;-73
2021/12/07 09:15:41;;;;;;;;;58.67;44.00;;;;;21.07;48.58;100927.69;109119;1283;18214;-73
2021/12/07 09:18:07;;;;;;;;;54.33;44.00;;;;;21.08;48.68;100928.33;109092;1283;18242;-73
2021/12/07 09:20:33;;;;;;;;;54.33;40.00;;;;;21.09;48.68;100928.98;109103;1282;19296;-73
2021/12/07 09:22:59;;;;;;;;;51.67;41.00;;;;;21.07;48.47;100928.40;109128;1283;18216;-74
2021/12/07 09:25:25;;;;;;;;;47.33;40.00;;;;;21.04;48.37;100927.11;109117;1282;18265;-74
2021/12/07 09:27:51;;;;;;;;;43.50;34.00;;;;;20.95;47.61;100928.16;109141;1283;18915;-74
2021/12/07 09:30:17;;;;;;;;;39.00;35.00;;;;;20.93;47.28;100928.04;109076;1282;19124;-75
2021/12/07 09:32:43;;;;;;;;;40.00;35.00;;;;;20.94;47.35;100922.99;108993;1283;18664;-73
2021/12/07 09:35:09;;;;;;;;;48.00;37.50;;;;;20.99;47.19;100922.30;109135;1283;18660;-75
2021/12/07 09:37:35;;;;;;;;;40.00;32.00;;;;;21.00;47.13;100923.28;109049;1283;18680;-73
2021/12/07 09:40:01;;;;;;;;;34.50;31.50;;;;;21.02;47.15;100925.80;109036;1283;18295;-73
2021/12/07 09:42:27;;;;;;;;;38.00;33.00;;;;;21.01;47.14;100922.19;109040;1282;18693;-73
2021/12/07 09:44:53;;;;;;;;;42.50;34.50;;;;;21.02;47.09;100920.52;109061;1283;18344;-74
2021/12/07 09:47:19;;;;;;;;;39.67;34.00;;;;;21.02;47.27;100921.73;109069;1283;18495;-74
2021/12/07 09:49:45;;;;;;;;;36.50;32.00;;;;;21.04;47.41;100919.48;109098;1283;18584;-74
2021/12/07 09:52:11;;;;;;;;;35.50;32.50;;;;;21.05;47.33;100910.15;109079;1283;20462;-74
2021/12/07 09:54:37;;;;;;;;;31.00;30.50;;;;;21.16;47.52;100920.92;109024;1283;18410;-74
2021/12/07 09:57:04;;;;;;;;;32.00;29.00;;;;;21.19;48.56;100918.70;109083;1282;18630;-74
2021/12/07 09:59:30;;;;;;;;;41.50;32.00;;;;;21.23;49.61;100915.75;109062;1283;20510;-73
2021/12/07 10:01:56;;;;;;;;;32.00;28.00;;;;;21.28;50.51;100915.11;108993;1282;21085;-72
2021/12/07 10:04:27;;;;;;;;;38.67;31.67;;;;;21.30;50.98;100916.05;109033;1283;21572;-73
2021/12/07 10:06:53;;;;;;;;;35.00;29.33;;;;;21.31;50.97;100913.05;109075;1283;18906;-74
2021/12/07 10:09:19;;;;;;;;;36.00;31.67;;;;;21.31;51.65;100909.89;108955;1283;19103;-74
2021/12/07 10:11:45;;;;;;;;;39.00;28.00;;;;;21.32;51.80;100912.58;109097;1283;21810;-75
2021/12/07 10:14:11;;;;;;;;;31.00;27.00;;;;;21.31;52.35;100909.05;108963;1283;18282;-74
2021/12/07 10:16:37;;;;;;;;;32.00;30.00;;;;;21.30;52.45;100908.54;109054;1283;18224;-75
2021/12/07 10:19:03;;;;;;;;;31.00;29.00;;;;;21.31;52.63;100909.73;108985;1283;18686;-74
2021/12/07 10:21:30;;;;;;;;;32.50;27.00;;;;;21.32;53.32;100904.50;109033;1283;18090;-73
2021/12/07 10:23:58;;;;;;;;;30.33;27.33;;;;;21.37;53.80;100903.59;109419;1283;22069;-73
2021/12/07 10:26:24;;;;;;;;;34.50;26.00;;;;;21.39;53.93;100904.06;109059;1283;18936;-71
2021/12/07 10:28:50;;;;;;;;;32.00;27.50;;;;;21.41;53.32;100898.63;109070;1283;18113;-74
2021/12/07 10:31:16;;;;;;;;;25.50;22.00;;;;;21.41;52.98;100905.36;109047;1283;20268;-73
2021/12/07 10:33:42;;;;;;;;;26.00;24.00;;;;;21.41;53.10;100906.20;109054;1283;19204;-74
2021/12/07 10:36:08;;;;;;;;;28.00;24.00;;;;;21.40;52.51;100902.92;109020;1283;18116;-73
2021/12/07 10:38:34;;;;;;;;;28.50;27.00;;;;;21.41;52.17;100901.33;109060;1283;18253;-74
2021/12/07 10:41:00;;;;;;;;;33.00;28.00;;;;;21.34;52.14;100900.71;109033;1283;18663;-74
2021/12/07 10:43:26;;;;;;;;;27.00;24.50;;;;;21.31;52.03;100903.02;109037;1283;18318;-74
2021/12/07 10:45:52;;;;;;;;;24.50;20.50;;;;;21.32;52.09;100907.58;109078;1283;18195;-74
2021/12/07 10:48:18;;;;;;;;;26.00;22.00;;;;;21.35;52.00;100909.81;109033;1283;18929;-74
2021/12/07 10:50:44;;;;;;;;;20.50;19.00;;;;;21.39;51.83;100908.52;108951;1283;18211;-74
2021/12/07 10:53:10;;;;;;;;;27.00;23.00;;;;;21.38;51.19;100907.71;108957;1283;22364;-74
2021/12/07 10:55:36;;;;;;;;;27.50;23.00;;;;;21.37;50.99;100912.56;109086;1283;21956;-74
2021/12/07 10:58:02;;;;;;;;;26.67;25.00;;;;;21.35;50.85;100915.86;109084;1283;18353;-73
2021/12/07 11:00:27;;;;;;;;;28.00;24.50;;;;;21.34;51.01;100920.71;109062;1283;18243;-72
2021/12/07 11:02:53;;;;;;;;;25.50;22.50;;;;;21.33;50.96;100918.56;109070;1283;18727;-73
2021/12/07 11:05:20;;;;;;;;;24.50;20.00;;;;;21.35;50.89;100922.62;109073;1283;21940;-73
2021/12/07 11:07:46;;;;;;;;;24.67;21.33;;;;;21.34;51.14;100925.69;109075;1283;18500;-73
2021/12/07 11:10:15;;;;;;;;;24.50;20.50;;;;;21.36;50.98;100923.02;109008;1282;22383;-73
2021/12/07 11:12:47;;;;;;;;;25.00;21.50;;;;;21.35;50.72;100922.05;108958;1283;23423;-73
2021/12/07 11:15:19;;;;;;;;;23.00;21.33;;;;;21.35;50.53;100927.22;109107;1283;19106;-74
2021/12/07 11:17:44;;;;;;;;;21.00;18.00;;;;;21.32;50.21;100927.27;109527;1283;22347;-75
2021/12/07 11:20:10;;;;;;;;;19.00;17.50;;;;;21.28;50.64;100931.15;109100;1283;18705;-75
2021/12/07 11:22:37;;;;;;;;;20.33;19.00;;;;;21.27;50.27;100926.20;109036;1283;19125;-75
2021/12/07 11:25:03;;;;;;;;;23.50;21.00;;;;;21.25;50.32;100926.45;109025;1283;19182;-76
2021/12/07 11:30:13;;;;;;;;;20.00;18.00;;;;;21.21;50.14;100926.48;109042;1283;18630;-74
2021/12/07 11:32:39;;;;;;;;;23.00;21.00;;;;;21.20;50.07;100928.95;109243;1280;19770;-75
2021/12/07 11:35:05;;;;;;;;;25.33;23.00;;;;;21.19;50.09;100928.38;109272;1280;18318;-75
2021/12/07 11:37:31;;;;;;;;;21.00;20.00;;;;;21.20;49.90;100928.06;109241;1279;18291;-74
2021/12/07 11:39:59;;;;;;;;;20.00;18.00;;;;;21.20;49.73;100922.80;109224;1280;18603;-74
2021/12/07 11:42:26;;;;;;;;;23.33;21.00;;;;;21.18;49.66;100921.45;109255;1280;20392;-74
2021/12/07 11:44:51;;;;;;;;;26.50;21.50;;;;;21.17;49.54;100913.89;109201;1280;19754;-74
2021/12/07 11:47:17;;;;;;;;;21.00;20.50;;;;;21.15;49.70;100916.25;109234;1279;19353;-74
2021/12/07 11:49:43;;;;;;;;;21.00;19.50;;;;;21.16;49.67;100920.20;109270;1279;18564;-75
2021/12/07 11:52:09;;;;;;;;;21.50;17.00;;;;;21.16;49.63;100920.54;109226;1280;22635;-75
2021/12/07 11:54:35;;;;;;;;;21.00;18.00;;;;;21.15;49.29;100920.67;109265;1279;19433;-75
2021/12/07 11:57:01;;;;;;;;;20.00;18.00;;;;;21.15;49.42;100915.56;109253;1280;21751;-75
2021/12/07 11:59:27;;;;;;;;;20.50;18.00;;;;;21.16;49.51;100919.04;109276;1280;18739;-75
2021/12/07 12:01:53;;;;;;;;;22.00;19.00;;;;;21.16;49.32;100914.91;109333;1279;18559;-75
2021/12/07 12:04:19;;;;;;;;;21.00;19.67;;;;;21.17;49.38;100916.27;109235;1280;20423;-74
2021/12/07 12:06:45;;;;;;;;;20.00;19.50;;;;;21.15;49.39;100911.38;109300;1279;19431;-75
2021/12/07 12:09:12;;;;;;;;;26.00;20.00;;;;;21.15;49.45;100910.63;109269;1280;18711;-75
2021/12/07 12:11:38;;;;;;;;;17.00;16.00;;;;;21.15;49.55;100919.23;109309;1280;18956;-75
2021/12/07 12:14:04;;;;;;;;;20.00;18.00;;;;;21.17;49.39;100918.87;109189;1280;23879;-74
2021/12/07 12:16:29;;;;;;;;;17.50;17.50;;;;;21.20;49.31;100912.97;109228;1279;19302;-75
2021/12/07 12:18:55;;;;;;;;;18.00;17.00;;;;;21.21;49.23;100903.63;109264;1280;18712;-76
2021/12/07 12:21:21;;;;;;;;;14.00;14.00;;;;;21.26;49.18;100905.41;109272;1279;18505;-75
2021/12/07 12:23:47;;;;;;;;;17.50;16.00;;;;;21.27;49.53;100909.80;109250;1279;19262;-76
2021/12/07 12:26:13;;;;;;;;;18.00;17.00;;;;;21.28;49.36;100908.09;109270;1279;18684;-75
2021/12/07 12:28:40;;;;;;;;;17.00;17.00;;;;;21.30;49.51;100914.42;109208;1280;23484;-75
2021/12/07 12:31:06;;;;;;;;;18.00;17.00;;;;;21.32;49.59;100913.05;109219;1280;22277;-75
2021/12/07 12:33:32;;;;;;;;;16.50;16.00;;;;;21.33;49.72;100914.23;109250;1280;18327;-76
2021/12/07 12:35:59;;;;;;;;;20.00;17.00;;;;;21.36;49.87;100914.78;109260;1280;22316;-76
2021/12/07 12:38:25;;;;;;;;;17.67;16.67;;;;;21.39;50.17;100914.52;109241;1280;20494;-74
2021/12/07 12:40:51;;;;;;;;;18.00;17.50;;;;;21.40;50.04;100915.25;109260;1280;18051;-75
2021/12/07 12:43:17;;;;;;;;;17.00;17.00;;;;;21.40;50.75;100914.48;109267;1280;22335;-77
2021/12/07 12:45:46;;;;;;;;;17.00;16.33;;;;;21.41;50.42;100914.92;109281;1280;18774;-75
2021/12/07 12:48:12;;;;;;;;;20.00;17.00;;;;;21.40;50.24;100914.31;109265;1280;18338;-74
2021/12/07 12:50:38;;;;;;;;;16.00;14.00;;;;;21.36;50.22;100908.40;109265;1280;19142;-75
2021/12/07 12:53:04;;;;;;;;;20.00;18.00;;;;;21.34;50.62;100909.43;109231;1279;18724;-75
2021/12/07 12:55:30;;;;;;;;;13.00;13.00;;;;;21.31;50.60;100907.36;109237;1280;18742;-75
2021/12/07 12:57:56;;;;;;;;;20.33;16.33;;;;;21.37;50.84;100905.10;109185;1280;22448;-75
2021/12/07 13:00:22;;;;;;;;;20.00;17.00;;;;;21.42;51.19;100906.10;109259;1280;22277;-74